DW8209 Gubbio IT current weather conditions

sailwx.info

Wind from 293 at 0 knots gusting 3

Air temperature 23.3° C
Dewpoint 18.2° C

Last reported at 2014-Jul-31 16:33 UTC.
Time now 2014-Jul-31 17:34 UTC

Location: N 43°19' E 012°34'.
View on Google Maps.

See reports from other nearby stations

  
Tides and Currents Weather Stations Pressure Air Temp Water Temp Dewpoint Dewpoint Depression Visibility Wind Speed Wind Dir Waves Ship Positions
date/time (UTC)wind fromknots sea level pressurealtimeterstation pressurevisibilityair tempwater tempwave heightnotes
2014-Jul-31 16:33 293 0 gusting 3 23.3
2014-Jul-31 16:18 288 2 gusting 5 23.3
2014-Jul-31 16:03 288 2 gusting 6 23.3
2014-Jul-31 15:48 270 3 gusting 5 23.3
2014-Jul-31 15:33 305 4 gusting 6 23.3
2014-Jul-31 15:18 277 0 gusting 1 23.9
2014-Jul-31 15:03 288 2 gusting 5 24.4
2014-Jul-31 14:48 355 1 gusting 5 23.9
2014-Jul-31 14:33 025 0 gusting 3 23.9
2014-Jul-31 14:18 032 2 gusting 5 23.3
2014-Jul-31 14:03 333 1 gusting 4 23.9
2014-Jul-31 13:48 030 1 gusting 4 23.9
2014-Jul-31 13:33 303 1 gusting 4 23.9
2014-Jul-31 13:18 042 1 gusting 5 23.9
2014-Jul-31 13:03 335 2 gusting 6 24.4
2014-Jul-31 12:48 309 2 gusting 5 24.4
2014-Jul-31 12:33 240 3 gusting 4 23.3
2014-Jul-31 12:17 082 1 gusting 5 23.3
2014-Jul-31 12:02 011 0 gusting 3 23.3
2014-Jul-31 11:47 301 1 gusting 4 23.3
2014-Jul-31 11:32 262 2 gusting 5 22.8
2014-Jul-31 11:17 271 1 gusting 4 22.2
2014-Jul-31 11:02 293 1 gusting 5 22.2
2014-Jul-31 10:47 279 3 gusting 7 21.7
2014-Jul-31 10:32 310 2 gusting 6 21.1
2014-Jul-31 10:17 332 1 gusting 5 20.6
2014-Jul-31 10:02 316 3 gusting 6 20.6
2014-Jul-31 09:47 281 1 gusting 4 20.6
2014-Jul-31 09:32 269 20.6
2014-Jul-31 09:17 155 20.0
2014-Jul-31 09:02 228 1 gusting 3 19.4
2014-Jul-31 08:47 218 1 gusting 3 18.9
2014-Jul-31 08:31 190 18.9
2014-Jul-31 08:16 157 18.9
2014-Jul-31 08:01 153 18.9
2014-Jul-31 07:46 128 18.3
2014-Jul-31 07:31 146 17.8
2014-Jul-31 07:16 158 17.8
2014-Jul-31 07:01 158 17.2
2014-Jul-31 06:46 141 17.2
2014-Jul-31 06:31 136 17.2
2014-Jul-31 06:16 145 16.7
2014-Jul-31 06:01 150 16.7
2014-Jul-31 05:46 131 1 gusting 3 16.1
2014-Jul-31 04:46 115 0 gusting 2 15.6
2014-Jul-31 04:31 150 15.6
2014-Jul-31 04:16 155 15.6
2014-Jul-31 04:01 156 15.6
2014-Jul-31 03:46 152 15.6
2014-Jul-31 03:31 120 0 gusting 2 15.6
2014-Jul-31 03:16 134 15.6
2014-Jul-31 03:01 120 0 gusting 2 15.6
2014-Jul-31 02:46 127 0 gusting 1 15.6
2014-Jul-31 02:31 129 16.1
2014-Jul-31 02:16 127 16.1
2014-Jul-31 02:01 125 16.1
2014-Jul-31 01:46 127 16.1
2014-Jul-31 01:31 125 16.1
2014-Jul-31 01:16 124 16.1
2014-Jul-31 01:01 153 16.1
2014-Jul-31 00:46 191 16.1
2014-Jul-31 00:31 132 16.1
2014-Jul-31 00:16 091 16.1
2014-Jul-31 00:01 069 0 gusting 2 16.1
2014-Jul-30 23:46 150 16.1
2014-Jul-30 23:31 152 16.1
2014-Jul-30 23:16 105 0 gusting 1 16.1
2014-Jul-30 23:01 145 16.1
2014-Jul-30 22:46 129 16.1
2014-Jul-30 22:31 141 16.1
2014-Jul-30 22:16 103 16.1
2014-Jul-30 22:01 143 16.1
2014-Jul-30 21:46 115 16.1
2014-Jul-30 21:31 105 0 gusting 2 16.1
2014-Jul-30 21:16 099 1 gusting 2 16.1
2014-Jul-30 21:01 129 16.1
2014-Jul-30 20:46 162 16.1
2014-Jul-30 20:31 110 0 gusting 1 16.1
2014-Jul-30 20:16 124 0 gusting 3 16.1
2014-Jul-30 20:01 101 0 gusting 1 16.1
2014-Jul-30 19:45 118 0 gusting 2 16.1
2014-Jul-30 19:30 092 0 gusting 1 16.7
2014-Jul-30 19:15 110 0 gusting 1 16.7
2014-Jul-30 19:00 134 16.7
2014-Jul-30 18:45 071 0 gusting 1 16.7
2014-Jul-30 18:30 145 17.2
2014-Jul-30 18:15 127 17.2
2014-Jul-30 18:00 096 1 gusting 3 17.2
2014-Jul-30 17:45 147 17.8
2014-Jul-30 17:30 203 1 gusting 3 17.8
2014-Jul-30 17:15 204 1 gusting 5 18.3
2014-Jul-30 17:00 156 0 gusting 3 18.9
2014-Jul-30 16:45 110 1 gusting 3 19.4
2014-Jul-30 16:30 152 0 gusting 3 18.9
2014-Jul-30 16:15 210 0 gusting 5 18.9
2014-Jul-30 16:00 128 0 gusting 4 18.9
2014-Jul-30 15:45 109 2 gusting 6 18.3
2014-Jul-30 15:30 132 0 gusting 3 17.8
2014-Jul-30 15:15 085 1 gusting 4 17.2
2014-Jul-30 15:00 120 1 gusting 4 17.8
2014-Jul-30 14:45 126 1 gusting 6 17.2
2014-Jul-30 14:30 224 2 gusting 6 16.7
2014-Jul-30 13:59 232 6 gusting 13 18.3
2014-Jul-30 13:44 164 2 gusting 6 18.9
2014-Jul-30 13:30 226 0 gusting 6 18.9
2014-Jul-30 13:16 195 1 gusting 5 19.4
2014-Jul-30 12:59 235 19.4
2014-Jul-30 12:44 201 1 gusting 4 20.0
2014-Jul-30 12:29 191 3 gusting 8 20.6
2014-Jul-30 12:14 225 3 gusting 7 20.6
2014-Jul-30 11:59 232 3 gusting 5 20.0
2014-Jul-30 11:44 117 0 gusting 4 19.4
2014-Jul-30 11:29 108 1 gusting 5 18.9
2014-Jul-30 11:14 129 4 gusting 6 18.3
2014-Jul-30 10:59 129 2 gusting 5 18.3
2014-Jul-30 10:44 155 17.8
2014-Jul-30 10:29 114 2 gusting 5 17.2
2014-Jul-30 10:14 105 1 gusting 3 16.7
2014-Jul-30 09:59 143 1 gusting 3 17.2
2014-Jul-30 09:44 204 0 gusting 4 17.8
2014-Jul-30 09:29 218 17.8
2014-Jul-30 09:14 221 0 gusting 6 17.8
2014-Jul-30 08:59 253 2 gusting 6 18.3
2014-Jul-30 08:43 245 0 gusting 4 18.9
2014-Jul-30 08:28 211 4 gusting 8 18.3
2014-Jul-30 08:13 231 5 gusting 8 18.3
2014-Jul-30 07:58 219 3 gusting 10 18.3
2014-Jul-30 07:43 219 3 gusting 7 17.2
2014-Jul-30 07:28 214 5 gusting 6 16.7
2014-Jul-30 07:13 260 1 gusting 8 16.1
2014-Jul-30 06:58 229 3 gusting 7 16.1
2014-Jul-30 06:43 242 5 gusting 8 16.1
2014-Jul-30 06:28 218 1 gusting 5 15.6
2014-Jul-30 06:13 135 2 gusting 9 15.6
2014-Jul-30 05:58 179 4 gusting 10 15.6
2014-Jul-30 05:43 127 0 gusting 9 15.0
2014-Jul-30 05:28 115 0 gusting 5 15.0
2014-Jul-30 05:13 249 2 gusting 7 15.0
2014-Jul-30 04:58 201 1 gusting 5 15.0
2014-Jul-30 04:43 143 0 gusting 4 15.0
2014-Jul-30 04:28 141 1 gusting 6 15.0
2014-Jul-30 04:13 145 15.0
2014-Jul-30 03:58 149 0 gusting 3 14.4
2014-Jul-30 03:43 187 15.0
2014-Jul-30 03:28 198 15.0
2014-Jul-30 03:13 235 15.0
2014-Jul-30 02:58 217 15.0
2014-Jul-30 02:43 127 15.0
2014-Jul-30 02:28 152 1 gusting 6 15.0
2014-Jul-30 02:13 174 1 gusting 4 15.0
2014-Jul-30 01:58 146 15.0
2014-Jul-30 01:43 105 1 gusting 3 15.0
2014-Jul-30 01:28 162 15.6
2014-Jul-30 01:13 240 15.6
2014-Jul-30 00:58 179 0 gusting 4 16.1
2014-Jul-30 00:43 074 16.1
2014-Jul-30 00:28 011 16.1
2014-Jul-30 00:13 233 1 gusting 1 16.1
2014-Jul-29 23:58 037 1 gusting 3 16.1
2014-Jul-29 23:43 225 16.1
2014-Jul-29 23:28 195 16.1
2014-Jul-29 23:13 142 0 gusting 2 16.1
2014-Jul-29 22:58 051 2 gusting 3 16.1
2014-Jul-29 22:48 352 0 gusting 3 16.1
2014-Jul-29 22:28 104 1 gusting 2 16.1
2014-Jul-29 22:13 242 1 gusting 3 16.1
2014-Jul-29 21:58 355 0 gusting 1 16.1
2014-Jul-29 21:42 352 0 gusting 3 16.7
2014-Jul-29 21:13 227 3 gusting 5 16.7
2014-Jul-29 20:58 012 16.7
2014-Jul-29 20:43 302 3 gusting 6 16.7
2014-Jul-29 20:28 075 3 gusting 4 17.2
2014-Jul-29 20:14 118 17.2
2014-Jul-29 19:58 323 0 gusting 2 17.2
2014-Jul-29 19:43 216 17.2
2014-Jul-29 19:28 102 17.2
2014-Jul-29 19:13 101 17.2
2014-Jul-29 18:58 100 17.2
2014-Jul-29 18:43 133 17.2
2014-Jul-29 18:28 341 17.2
2014-Jul-29 18:14 341 17.2
2014-Jul-29 17:42 293 1 gusting 4 17.8
2014-Jul-29 17:27 346 0 gusting 3 18.3
2014-Jul-29 17:12 222 0 gusting 1 18.3